PWSweather.com
Personal Weather Stations
Station Observations
WISCHPK61
Green Bay Schmitt Park, Green Bay, WI 54311

Green Bay Schmitt ParkGreen Bay, WI 54311

Lat: 44.514277, Lon: -87.935067

Elevation: 735

Station Type: Acu Rite Pro Weather Center model 02032C

http://greenbayweathercam.com

High Low Average
Temperature 87.8°F31.0°C 68.4°F20.2°C 75.4°F24.1°C
Dew Point 87.5°F30.8°C 68.1°F20.1°C 75.1°F23.9°C
Winds 1.2 mph 1.9 kmh Calm Calm Calm SWCalm SW
Wind Gusts 2.3 mph3.7 kmh -- --
Humidity 99% 99% 99%
Pressure 29.25 in990.5 mb 29.20 in988.8 mb -
Precipitation 0.00 in0.0 mm - -
Hour Temp Dew Point Humidity Winds Wind Gusts Pressure Precip Precip Rate Daily Precip Total
12:00 AM 74.7°F23.7°C 74.4°F23.6°C 99% Calm Calm -- 29.20 in988.8 mb - 0.00 in0.0 mm 0.00 in0.0 mm
01:00 AM 73.9°F23.3°C 73.6°F23.1°C 99% Calm Calm -- 29.21 in989.2 mb - 0.00 in0.0 mm 0.00 in0.0 mm
02:00 AM 72.3°F22.4°C 72.0°F22.2°C 99% Calm Calm -- 29.20 in988.8 mb - 0.00 in0.0 mm 0.00 in0.0 mm
03:00 AM 71.2°F21.8°C 70.9°F21.6°C 99% Calm Calm -- 29.20 in988.8 mb - 0.00 in0.0 mm 0.00 in0.0 mm
04:00 AM 70.3°F21.3°C 70.0°F21.1°C 99% Calm Calm -- 29.21 in989.2 mb - 0.00 in0.0 mm 0.00 in0.0 mm
05:00 AM 70.0°F21.1°C 69.7°F20.9°C 99% Calm Calm -- 29.23 in989.8 mb - 0.00 in0.0 mm 0.00 in0.0 mm
06:00 AM 70.2°F21.2°C 69.9°F21.1°C 99% Calm Calm -- 29.23 in989.8 mb - 0.00 in0.0 mm 0.00 in0.0 mm
07:00 AM 69.6°F20.9°C 69.3°F20.7°C 99% Calm Calm -- 29.23 in989.8 mb - 0.00 in0.0 mm 0.00 in0.0 mm
08:00 AM 71.1°F21.7°C 70.8°F21.6°C 99% Calm Calm -- 29.24 in990.2 mb - 0.00 in0.0 mm 0.00 in0.0 mm
09:00 AM 73.6°F23.1°C 73.3°F22.9°C 99% Calm Calm -- 29.24 in990.2 mb - 0.00 in0.0 mm 0.00 in0.0 mm
10:00 AM 77.2°F25.1°C 76.9°F24.9°C 99% Calm Calm -- 29.24 in990.2 mb - 0.00 in0.0 mm 0.00 in0.0 mm
11:00 AM 78.7°F25.9°C 78.4°F25.8°C 99% Calm Calm -- 29.25 in990.5 mb - 0.00 in0.0 mm 0.00 in0.0 mm
12:00 PM 80.8°F27.1°C 80.5°F26.9°C 99% Calm Calm 1.2 mph1.9 kmh 29.24 in990.2 mb - 0.00 in0.0 mm 0.00 in0.0 mm
01:00 PM 82.5°F28.1°C 82.2°F27.9°C 99% Calm Calm 1.2 mph1.9 kmh 29.24 in990.2 mb - 0.00 in0.0 mm 0.00 in0.0 mm
02:00 PM 87.8°F31.0°C 87.5°F30.8°C 99% 1.2 mph NW1.9 kmh NW 2.3 mph3.7 kmh 29.23 in989.8 mb - 0.00 in0.0 mm 0.00 in0.0 mm
03:00 PM 85.6°F29.8°C 85.3°F29.6°C 99% Calm Calm -- 29.21 in989.2 mb - 0.00 in0.0 mm 0.00 in0.0 mm
04:00 PM 81.5°F27.5°C 81.2°F27.3°C 99% Calm Calm -- 29.21 in989.2 mb - 0.00 in0.0 mm 0.00 in0.0 mm
05:00 PM 80.6°F27.0°C 80.3°F26.8°C 99% Calm Calm -- 29.21 in989.2 mb - 0.00 in0.0 mm 0.00 in0.0 mm
06:00 PM 79.7°F26.5°C 79.4°F26.3°C 99% Calm Calm -- 29.21 in989.2 mb - 0.00 in0.0 mm 0.00 in0.0 mm
07:00 PM 77.5°F25.3°C 77.2°F25.1°C 99% Calm Calm -- 29.21 in989.2 mb - 0.00 in0.0 mm 0.00 in0.0 mm
08:00 PM 74.8°F23.8°C 74.5°F23.6°C 99% Calm Calm -- 29.22 in989.5 mb - 0.00 in0.0 mm 0.00 in0.0 mm
09:00 PM 72.3°F22.4°C 72.0°F22.2°C 99% Calm Calm -- 29.23 in989.8 mb - 0.00 in0.0 mm 0.00 in0.0 mm
10:00 PM 70.7°F21.5°C 70.4°F21.3°C 99% Calm Calm -- 29.24 in990.2 mb - 0.00 in0.0 mm 0.00 in0.0 mm
11:00 PM 69.7°F20.9°C 69.4°F20.8°C 99% Calm Calm -- 29.25 in990.5 mb - 0.00 in0.0 mm 0.00 in0.0 mm